sensor_id;sensor_type;location;lat;lon;timestamp;temperature;humidity
27759;DHT22;15148;48.972;12.794;2023-08-07T00:01:09;12.40;99.90
27759;DHT22;15148;48.972;12.794;2023-08-07T00:06:11;12.30;99.90
27759;DHT22;15148;48.972;12.794;2023-08-07T00:11:13;12.30;99.90
27759;DHT22;15148;48.972;12.794;2023-08-07T00:16:15;12.40;99.90
27759;DHT22;15148;48.972;12.794;2023-08-07T00:21:17;12.30;99.90
27759;DHT22;15148;48.972;12.794;2023-08-07T00:26:19;12.40;99.90
27759;DHT22;15148;48.972;12.794;2023-08-07T00:31:21;12.30;99.90
27759;DHT22;15148;48.972;12.794;2023-08-07T00:36:23;12.30;99.90
27759;DHT22;15148;48.972;12.794;2023-08-07T00:41:25;12.20;99.90
27759;DHT22;15148;48.972;12.794;2023-08-07T00:46:28;12.20;99.90
27759;DHT22;15148;48.972;12.794;2023-08-07T00:51:31;12.20;99.90
27759;DHT22;15148;48.972;12.794;2023-08-07T00:56:34;12.10;99.90
27759;DHT22;15148;48.972;12.794;2023-08-07T01:01:36;12.10;99.90
27759;DHT22;15148;48.972;12.794;2023-08-07T01:06:38;12.00;99.90
27759;DHT22;15148;48.972;12.794;2023-08-07T01:11:57;12.10;99.90
27759;DHT22;15148;48.972;12.794;2023-08-07T01:17:11;12.10;99.90
27759;DHT22;15148;48.972;12.794;2023-08-07T01:22:15;12.00;99.90
27759;DHT22;15148;48.972;12.794;2023-08-07T01:37:39;11.90;99.90
27759;DHT22;15148;48.972;12.794;2023-08-07T01:42:41;11.80;99.90
27759;DHT22;15148;48.972;12.794;2023-08-07T01:47:44;11.90;99.90
27759;DHT22;15148;48.972;12.794;2023-08-07T01:52:46;11.90;99.90
27759;DHT22;15148;48.972;12.794;2023-08-07T01:57:48;11.80;99.90
27759;DHT22;15148;48.972;12.794;2023-08-07T02:02:50;11.80;99.90
27759;DHT22;15148;48.972;12.794;2023-08-07T02:07:52;11.70;99.90
27759;DHT22;15148;48.972;12.794;2023-08-07T02:12:57;11.70;99.90
27759;DHT22;15148;48.972;12.794;2023-08-07T02:18:00;11.70;99.90
27759;DHT22;15148;48.972;12.794;2023-08-07T02:23:02;11.80;99.90
27759;DHT22;15148;48.972;12.794;2023-08-07T02:28:04;11.80;99.90
27759;DHT22;15148;48.972;12.794;2023-08-07T02:33:07;11.80;99.90
27759;DHT22;15148;48.972;12.794;2023-08-07T02:38:09;11.80;99.90
27759;DHT22;15148;48.972;12.794;2023-08-07T02:43:11;11.70;99.90
27759;DHT22;15148;48.972;12.794;2023-08-07T02:48:13;11.60;99.90
27759;DHT22;15148;48.972;12.794;2023-08-07T02:53:15;11.70;99.90
27759;DHT22;15148;48.972;12.794;2023-08-07T02:58:17;11.70;99.90
27759;DHT22;15148;48.972;12.794;2023-08-07T03:03:19;11.60;99.90
27759;DHT22;15148;48.972;12.794;2023-08-07T03:08:21;11.70;99.90
27759;DHT22;15148;48.972;12.794;2023-08-07T03:13:24;11.70;99.90
27759;DHT22;15148;48.972;12.794;2023-08-07T03:18:27;11.70;99.90
27759;DHT22;15148;48.972;12.794;2023-08-07T03:23:29;11.70;99.90
27759;DHT22;15148;48.972;12.794;2023-08-07T03:28:34;11.70;99.90
27759;DHT22;15148;48.972;12.794;2023-08-07T03:33:36;11.70;99.90
27759;DHT22;15148;48.972;12.794;2023-08-07T03:38:39;11.70;99.90
27759;DHT22;15148;48.972;12.794;2023-08-07T03:43:41;11.80;99.90
27759;DHT22;15148;48.972;12.794;2023-08-07T03:48:44;11.70;99.90
27759;DHT22;15148;48.972;12.794;2023-08-07T03:53:46;11.70;99.90
27759;DHT22;15148;48.972;12.794;2023-08-07T03:58:49;11.70;99.90
27759;DHT22;15148;48.972;12.794;2023-08-07T04:03:54;11.70;99.90
27759;DHT22;15148;48.972;12.794;2023-08-07T04:08:56;11.70;99.90
27759;DHT22;15148;48.972;12.794;2023-08-07T04:13:58;11.70;99.90
27759;DHT22;15148;48.972;12.794;2023-08-07T04:19:00;11.60;99.90
27759;DHT22;15148;48.972;12.794;2023-08-07T04:24:02;11.70;99.90
27759;DHT22;15148;48.972;12.794;2023-08-07T04:29:12;11.60;99.90
27759;DHT22;15148;48.972;12.794;2023-08-07T04:34:14;11.70;99.90
27759;DHT22;15148;48.972;12.794;2023-08-07T04:39:16;11.60;99.90
27759;DHT22;15148;48.972;12.794;2023-08-07T04:44:20;11.70;99.90
27759;DHT22;15148;48.972;12.794;2023-08-07T04:49:22;11.70;99.90
27759;DHT22;15148;48.972;12.794;2023-08-07T04:54:24;11.70;99.90
27759;DHT22;15148;48.972;12.794;2023-08-07T04:59:25;11.70;99.90
27759;DHT22;15148;48.972;12.794;2023-08-07T05:04:28;11.60;99.90
27759;DHT22;15148;48.972;12.794;2023-08-07T05:09:30;11.60;99.90
27759;DHT22;15148;48.972;12.794;2023-08-07T05:14:32;11.60;99.90
27759;DHT22;15148;48.972;12.794;2023-08-07T05:19:34;11.60;99.90
27759;DHT22;15148;48.972;12.794;2023-08-07T05:24:36;11.60;99.90
27759;DHT22;15148;48.972;12.794;2023-08-07T05:29:41;11.50;99.90
27759;DHT22;15148;48.972;12.794;2023-08-07T05:34:46;11.50;99.90
27759;DHT22;15148;48.972;12.794;2023-08-07T05:39:48;11.50;99.90
27759;DHT22;15148;48.972;12.794;2023-08-07T05:44:50;11.50;99.90
27759;DHT22;15148;48.972;12.794;2023-08-07T05:49:52;11.50;99.90
27759;DHT22;15148;48.972;12.794;2023-08-07T05:54:54;11.50;99.90
27759;DHT22;15148;48.972;12.794;2023-08-07T05:59:56;11.50;99.90
27759;DHT22;15148;48.972;12.794;2023-08-07T06:04:58;11.40;99.90
27759;DHT22;15148;48.972;12.794;2023-08-07T06:10:00;11.50;99.90
27759;DHT22;15148;48.972;12.794;2023-08-07T06:15:02;11.40;99.90
27759;DHT22;15148;48.972;12.794;2023-08-07T06:20:06;11.40;99.90
27759;DHT22;15148;48.972;12.794;2023-08-07T06:25:10;11.40;99.90
27759;DHT22;15148;48.972;12.794;2023-08-07T06:30:12;11.40;99.90
27759;DHT22;15148;48.972;12.794;2023-08-07T06:35:15;11.40;99.90
27759;DHT22;15148;48.972;12.794;2023-08-07T06:40:17;11.30;99.90
27759;DHT22;15148;48.972;12.794;2023-08-07T06:45:19;11.40;99.90
27759;DHT22;15148;48.972;12.794;2023-08-07T06:50:21;11.40;99.90
27759;DHT22;15148;48.972;12.794;2023-08-07T06:55:23;11.50;99.90
27759;DHT22;15148;48.972;12.794;2023-08-07T07:00:25;11.30;99.90
27759;DHT22;15148;48.972;12.794;2023-08-07T07:05:27;11.40;99.90
27759;DHT22;15148;48.972;12.794;2023-08-07T07:10:29;11.40;99.90
27759;DHT22;15148;48.972;12.794;2023-08-07T07:15:31;11.50;99.90
27759;DHT22;15148;48.972;12.794;2023-08-07T07:20:33;11.50;99.90
27759;DHT22;15148;48.972;12.794;2023-08-07T07:25:35;11.40;99.90
27759;DHT22;15148;48.972;12.794;2023-08-07T07:30:39;11.40;99.90
27759;DHT22;15148;48.972;12.794;2023-08-07T07:35:41;11.50;99.90
27759;DHT22;15148;48.972;12.794;2023-08-07T07:40:42;11.40;99.90
27759;DHT22;15148;48.972;12.794;2023-08-07T07:45:44;11.40;99.90
27759;DHT22;15148;48.972;12.794;2023-08-07T07:50:46;11.40;99.90
27759;DHT22;15148;48.972;12.794;2023-08-07T07:55:48;11.50;99.90
27759;DHT22;15148;48.972;12.794;2023-08-07T08:00:50;11.50;99.90
27759;DHT22;15148;48.972;12.794;2023-08-07T08:05:55;11.50;99.90
27759;DHT22;15148;48.972;12.794;2023-08-07T08:10:57;11.50;99.90
27759;DHT22;15148;48.972;12.794;2023-08-07T08:16:02;11.50;99.90
27759;DHT22;15148;48.972;12.794;2023-08-07T08:21:04;11.40;99.90
27759;DHT22;15148;48.972;12.794;2023-08-07T08:26:08;11.50;99.90
27759;DHT22;15148;48.972;12.794;2023-08-07T08:31:10;11.50;99.90
27759;DHT22;15148;48.972;12.794;2023-08-07T08:36:12;11.60;99.90
27759;DHT22;15148;48.972;12.794;2023-08-07T08:41:14;11.50;99.90
27759;DHT22;15148;48.972;12.794;2023-08-07T08:46:17;11.50;99.90
27759;DHT22;15148;48.972;12.794;2023-08-07T08:51:21;11.60;99.90
27759;DHT22;15148;48.972;12.794;2023-08-07T08:56:24;11.50;99.90
27759;DHT22;15148;48.972;12.794;2023-08-07T09:01:26;11.60;99.90
27759;DHT22;15148;48.972;12.794;2023-08-07T09:06:31;11.60;99.90
27759;DHT22;15148;48.972;12.794;2023-08-07T09:11:33;11.60;99.90
27759;DHT22;15148;48.972;12.794;2023-08-07T09:16:36;11.60;99.90
27759;DHT22;15148;48.972;12.794;2023-08-07T09:21:39;11.50;99.90
27759;DHT22;15148;48.972;12.794;2023-08-07T09:26:42;11.50;99.90
27759;DHT22;15148;48.972;12.794;2023-08-07T09:31:46;11.60;99.90
27759;DHT22;15148;48.972;12.794;2023-08-07T09:36:49;11.60;99.90
27759;DHT22;15148;48.972;12.794;2023-08-07T09:41:51;11.70;99.90
27759;DHT22;15148;48.972;12.794;2023-08-07T09:46:53;11.70;99.90
27759;DHT22;15148;48.972;12.794;2023-08-07T09:51:56;11.60;99.90
27759;DHT22;15148;48.972;12.794;2023-08-07T09:56:59;11.60;99.90
27759;DHT22;15148;48.972;12.794;2023-08-07T10:02:02;11.60;99.90
27759;DHT22;15148;48.972;12.794;2023-08-07T10:07:05;11.70;99.90
27759;DHT22;15148;48.972;12.794;2023-08-07T10:12:07;11.70;99.90
27759;DHT22;15148;48.972;12.794;2023-08-07T10:17:09;11.70;99.90
27759;DHT22;15148;48.972;12.794;2023-08-07T10:22:13;11.80;99.90
27759;DHT22;15148;48.972;12.794;2023-08-07T10:27:18;11.80;99.90
27759;DHT22;15148;48.972;12.794;2023-08-07T10:32:22;11.80;99.90
27759;DHT22;15148;48.972;12.794;2023-08-07T10:38:04;11.80;99.90
27759;DHT22;15148;48.972;12.794;2023-08-07T10:48:17;11.80;99.90
27759;DHT22;15148;48.972;12.794;2023-08-07T10:53:21;11.80;99.90
27759;DHT22;15148;48.972;12.794;2023-08-07T10:58:29;11.80;99.90
27759;DHT22;15148;48.972;12.794;2023-08-07T11:03:35;11.80;99.90
27759;DHT22;15148;48.972;12.794;2023-08-07T11:08:37;11.80;99.90
27759;DHT22;15148;48.972;12.794;2023-08-07T11:13:40;11.70;99.90
27759;DHT22;15148;48.972;12.794;2023-08-07T11:18:42;11.80;99.90
27759;DHT22;15148;48.972;12.794;2023-08-07T11:23:44;11.70;99.90
27759;DHT22;15148;48.972;12.794;2023-08-07T11:28:49;11.80;99.90
27759;DHT22;15148;48.972;12.794;2023-08-07T11:33:52;11.80;99.90
27759;DHT22;15148;48.972;12.794;2023-08-07T11:38:54;11.80;99.90
27759;DHT22;15148;48.972;12.794;2023-08-07T11:43:56;11.80;99.90
27759;DHT22;15148;48.972;12.794;2023-08-07T11:48:59;11.90;99.90
27759;DHT22;15148;48.972;12.794;2023-08-07T11:54:01;11.80;99.90
27759;DHT22;15148;48.972;12.794;2023-08-07T11:59:04;11.80;99.90
27759;DHT22;15148;48.972;12.794;2023-08-07T12:04:09;11.80;99.90
27759;DHT22;15148;48.972;12.794;2023-08-07T12:09:11;11.90;99.90
27759;DHT22;15148;48.972;12.794;2023-08-07T12:14:15;11.90;99.90
27759;DHT22;15148;48.972;12.794;2023-08-07T12:19:18;11.90;99.90
27759;DHT22;15148;48.972;12.794;2023-08-07T12:24:20;12.00;99.90
27759;DHT22;15148;48.972;12.794;2023-08-07T12:29:24;12.00;99.90
27759;DHT22;15148;48.972;12.794;2023-08-07T12:34:30;12.00;99.90
27759;DHT22;15148;48.972;12.794;2023-08-07T12:39:35;12.00;99.90
27759;DHT22;15148;48.972;12.794;2023-08-07T12:44:40;12.10;99.90
27759;DHT22;15148;48.972;12.794;2023-08-07T12:49:42;12.00;99.90
27759;DHT22;15148;48.972;12.794;2023-08-07T12:54:44;12.10;99.90
27759;DHT22;15148;48.972;12.794;2023-08-07T12:59:46;12.10;99.90
27759;DHT22;15148;48.972;12.794;2023-08-07T13:04:48;12.10;99.90
27759;DHT22;15148;48.972;12.794;2023-08-07T13:09:50;12.10;99.90
27759;DHT22;15148;48.972;12.794;2023-08-07T13:14:53;12.10;99.90
27759;DHT22;15148;48.972;12.794;2023-08-07T13:19:54;12.10;99.90
27759;DHT22;15148;48.972;12.794;2023-08-07T13:24:56;12.10;99.90
27759;DHT22;15148;48.972;12.794;2023-08-07T13:29:58;12.20;99.90
27759;DHT22;15148;48.972;12.794;2023-08-07T13:35:01;12.10;99.90
27759;DHT22;15148;48.972;12.794;2023-08-07T13:40:06;12.20;99.90
27759;DHT22;15148;48.972;12.794;2023-08-07T13:45:08;12.30;99.90
27759;DHT22;15148;48.972;12.794;2023-08-07T13:50:11;12.20;99.90
27759;DHT22;15148;48.972;12.794;2023-08-07T13:55:14;12.20;99.90
27759;DHT22;15148;48.972;12.794;2023-08-07T14:00:16;12.20;99.90
27759;DHT22;15148;48.972;12.794;2023-08-07T14:05:19;12.20;99.90
27759;DHT22;15148;48.972;12.794;2023-08-07T14:10:21;12.20;99.90
27759;DHT22;15148;48.972;12.794;2023-08-07T14:15:23;12.30;99.90
27759;DHT22;15148;48.972;12.794;2023-08-07T14:20:26;12.30;99.90
27759;DHT22;15148;48.972;12.794;2023-08-07T14:25:28;12.40;99.90
27759;DHT22;15148;48.972;12.794;2023-08-07T14:30:30;12.40;99.90
27759;DHT22;15148;48.972;12.794;2023-08-07T14:35:32;12.50;99.90
27759;DHT22;15148;48.972;12.794;2023-08-07T14:40:34;12.60;99.90
27759;DHT22;15148;48.972;12.794;2023-08-07T14:45:39;12.50;99.90
27759;DHT22;15148;48.972;12.794;2023-08-07T14:50:42;12.60;99.90
27759;DHT22;15148;48.972;12.794;2023-08-07T14:55:44;12.60;99.90
27759;DHT22;15148;48.972;12.794;2023-08-07T15:00:47;12.60;99.90
27759;DHT22;15148;48.972;12.794;2023-08-07T15:05:49;12.70;99.90
27759;DHT22;15148;48.972;12.794;2023-08-07T15:10:53;12.70;99.90
27759;DHT22;15148;48.972;12.794;2023-08-07T15:15:55;12.70;99.90
27759;DHT22;15148;48.972;12.794;2023-08-07T15:20:59;12.50;99.90
27759;DHT22;15148;48.972;12.794;2023-08-07T15:26:04;12.60;99.90
27759;DHT22;15148;48.972;12.794;2023-08-07T15:31:06;12.50;99.90
27759;DHT22;15148;48.972;12.794;2023-08-07T15:36:08;12.60;99.90
27759;DHT22;15148;48.972;12.794;2023-08-07T15:41:11;12.70;99.90
27759;DHT22;15148;48.972;12.794;2023-08-07T15:46:13;12.60;99.90
27759;DHT22;15148;48.972;12.794;2023-08-07T15:51:15;12.60;99.90
27759;DHT22;15148;48.972;12.794;2023-08-07T15:56:17;12.50;99.90
27759;DHT22;15148;48.972;12.794;2023-08-07T16:01:19;12.60;99.90
27759;DHT22;15148;48.972;12.794;2023-08-07T16:06:21;12.50;99.90
27759;DHT22;15148;48.972;12.794;2023-08-07T16:11:23;12.50;99.90
27759;DHT22;15148;48.972;12.794;2023-08-07T16:16:25;12.40;99.90
27759;DHT22;15148;48.972;12.794;2023-08-07T16:21:27;12.40;99.90
27759;DHT22;15148;48.972;12.794;2023-08-07T16:26:29;12.40;99.90
27759;DHT22;15148;48.972;12.794;2023-08-07T16:31:31;12.50;99.90
27759;DHT22;15148;48.972;12.794;2023-08-07T16:36:33;12.50;99.90
27759;DHT22;15148;48.972;12.794;2023-08-07T16:41:35;12.40;99.90
27759;DHT22;15148;48.972;12.794;2023-08-07T16:46:37;12.30;99.90
27759;DHT22;15148;48.972;12.794;2023-08-07T16:51:39;12.20;99.90
27759;DHT22;15148;48.972;12.794;2023-08-07T16:56:41;12.20;99.90
27759;DHT22;15148;48.972;12.794;2023-08-07T17:01:42;12.20;99.90
27759;DHT22;15148;48.972;12.794;2023-08-07T17:06:45;12.20;99.90
27759;DHT22;15148;48.972;12.794;2023-08-07T17:11:46;12.20;99.90
27759;DHT22;15148;48.972;12.794;2023-08-07T17:16:48;12.20;99.90
27759;DHT22;15148;48.972;12.794;2023-08-07T17:21:50;12.20;99.90
27759;DHT22;15148;48.972;12.794;2023-08-07T17:26:52;12.20;99.90
27759;DHT22;15148;48.972;12.794;2023-08-07T17:31:54;12.20;99.90
27759;DHT22;15148;48.972;12.794;2023-08-07T17:36:59;12.20;99.90
27759;DHT22;15148;48.972;12.794;2023-08-07T17:42:02;12.20;99.90
27759;DHT22;15148;48.972;12.794;2023-08-07T17:47:04;12.10;99.90
27759;DHT22;15148;48.972;12.794;2023-08-07T17:52:06;12.10;99.90
27759;DHT22;15148;48.972;12.794;2023-08-07T17:57:08;12.20;99.90
27759;DHT22;15148;48.972;12.794;2023-08-07T18:02:10;12.20;99.90
27759;DHT22;15148;48.972;12.794;2023-08-07T18:07:12;12.20;99.90
27759;DHT22;15148;48.972;12.794;2023-08-07T18:12:16;12.20;99.90
27759;DHT22;15148;48.972;12.794;2023-08-07T18:17:18;12.20;99.90
27759;DHT22;15148;48.972;12.794;2023-08-07T18:22:20;12.20;99.90
27759;DHT22;15148;48.972;12.794;2023-08-07T18:27:22;12.20;99.90
27759;DHT22;15148;48.972;12.794;2023-08-07T18:32:24;12.20;99.90
27759;DHT22;15148;48.972;12.794;2023-08-07T18:37:26;12.20;99.90
27759;DHT22;15148;48.972;12.794;2023-08-07T18:42:28;12.20;99.90
27759;DHT22;15148;48.972;12.794;2023-08-07T18:47:30;12.10;99.90
27759;DHT22;15148;48.972;12.794;2023-08-07T18:52:32;12.10;99.90
27759;DHT22;15148;48.972;12.794;2023-08-07T18:57:34;12.10;99.90
27759;DHT22;15148;48.972;12.794;2023-08-07T19:02:36;12.00;99.90
27759;DHT22;15148;48.972;12.794;2023-08-07T19:07:40;12.10;99.90
27759;DHT22;15148;48.972;12.794;2023-08-07T19:12:42;12.00;99.90
27759;DHT22;15148;48.972;12.794;2023-08-07T19:17:44;11.90;99.90
27759;DHT22;15148;48.972;12.794;2023-08-07T19:22:46;11.90;99.90
27759;DHT22;15148;48.972;12.794;2023-08-07T19:27:48;11.90;99.90
27759;DHT22;15148;48.972;12.794;2023-08-07T19:32:50;11.80;99.90
27759;DHT22;15148;48.972;12.794;2023-08-07T19:37:52;11.60;99.90
27759;DHT22;15148;48.972;12.794;2023-08-07T19:42:54;11.50;99.90
27759;DHT22;15148;48.972;12.794;2023-08-07T19:47:56;11.50;99.90
27759;DHT22;15148;48.972;12.794;2023-08-07T19:53:00;11.50;99.90
27759;DHT22;15148;48.972;12.794;2023-08-07T19:58:03;11.40;99.90
27759;DHT22;15148;48.972;12.794;2023-08-07T20:03:06;11.30;99.90
27759;DHT22;15148;48.972;12.794;2023-08-07T20:08:09;11.20;99.90
27759;DHT22;15148;48.972;12.794;2023-08-07T20:13:11;11.20;99.90
27759;DHT22;15148;48.972;12.794;2023-08-07T20:18:13;11.20;99.90
27759;DHT22;15148;48.972;12.794;2023-08-07T20:23:15;11.20;99.90
27759;DHT22;15148;48.972;12.794;2023-08-07T20:28:17;11.20;99.90
27759;DHT22;15148;48.972;12.794;2023-08-07T20:33:19;11.30;99.90
27759;DHT22;15148;48.972;12.794;2023-08-07T20:38:21;11.30;99.90
27759;DHT22;15148;48.972;12.794;2023-08-07T20:43:23;11.20;99.90
27759;DHT22;15148;48.972;12.794;2023-08-07T20:48:24;11.20;99.90
27759;DHT22;15148;48.972;12.794;2023-08-07T20:53:26;11.30;99.90
27759;DHT22;15148;48.972;12.794;2023-08-07T20:58:28;11.20;99.90
27759;DHT22;15148;48.972;12.794;2023-08-07T21:03:32;11.20;99.90
27759;DHT22;15148;48.972;12.794;2023-08-07T21:08:34;11.10;99.90
27759;DHT22;15148;48.972;12.794;2023-08-07T21:13:36;11.00;99.90
27759;DHT22;15148;48.972;12.794;2023-08-07T21:18:40;10.90;99.90
27759;DHT22;15148;48.972;12.794;2023-08-07T21:23:42;10.80;99.90
27759;DHT22;15148;48.972;12.794;2023-08-07T21:28:44;10.90;99.90
27759;DHT22;15148;48.972;12.794;2023-08-07T21:33:46;10.90;99.90
27759;DHT22;15148;48.972;12.794;2023-08-07T21:38:47;10.90;99.90
27759;DHT22;15148;48.972;12.794;2023-08-07T21:43:49;10.90;99.90
27759;DHT22;15148;48.972;12.794;2023-08-07T21:48:52;11.00;99.90
27759;DHT22;15148;48.972;12.794;2023-08-07T21:53:54;10.90;99.90
27759;DHT22;15148;48.972;12.794;2023-08-07T21:58:56;10.90;99.90
27759;DHT22;15148;48.972;12.794;2023-08-07T22:03:57;10.90;99.90
27759;DHT22;15148;48.972;12.794;2023-08-07T22:08:59;10.90;99.90
27759;DHT22;15148;48.972;12.794;2023-08-07T22:14:01;10.90;99.90
27759;DHT22;15148;48.972;12.794;2023-08-07T22:19:04;10.80;99.90
27759;DHT22;15148;48.972;12.794;2023-08-07T22:24:07;10.90;99.90
27759;DHT22;15148;48.972;12.794;2023-08-07T22:29:09;10.90;99.90
27759;DHT22;15148;48.972;12.794;2023-08-07T22:34:11;10.90;99.90
27759;DHT22;15148;48.972;12.794;2023-08-07T22:39:13;10.90;99.90
27759;DHT22;15148;48.972;12.794;2023-08-07T22:44:15;10.90;99.90
27759;DHT22;15148;48.972;12.794;2023-08-07T22:49:17;10.90;99.90
27759;DHT22;15148;48.972;12.794;2023-08-07T22:54:21;10.90;99.90
27759;DHT22;15148;48.972;12.794;2023-08-07T22:59:23;10.80;99.90
27759;DHT22;15148;48.972;12.794;2023-08-07T23:04:25;10.70;99.90
27759;DHT22;15148;48.972;12.794;2023-08-07T23:09:27;10.70;99.90
27759;DHT22;15148;48.972;12.794;2023-08-07T23:14:29;10.70;99.90
27759;DHT22;15148;48.972;12.794;2023-08-07T23:19:31;10.80;99.90
27759;DHT22;15148;48.972;12.794;2023-08-07T23:24:33;10.70;99.90
27759;DHT22;15148;48.972;12.794;2023-08-07T23:29:35;10.70;99.90
27759;DHT22;15148;48.972;12.794;2023-08-07T23:34:39;10.70;99.90
27759;DHT22;15148;48.972;12.794;2023-08-07T23:39:41;10.70;99.90
27759;DHT22;15148;48.972;12.794;2023-08-07T23:44:43;10.70;99.90
27759;DHT22;15148;48.972;12.794;2023-08-07T23:49:45;10.70;99.90
27759;DHT22;15148;48.972;12.794;2023-08-07T23:54:47;10.60;99.90
27759;DHT22;15148;48.972;12.794;2023-08-07T23:59:49;10.60;99.90
